Time;durP1;ratioP1;P1;durP2;ratioP2;P2;SDS_P1;SDS_P2;PMS_P1;PMS_P2;Temp;Humidity;BMP_temperature;BMP_pressure;BME280_temperature;BME280_humidity;BME280_pressure;Samples;Min_cycle;Max_cycle;Signal;HPM_P1;HPM_P2
2022/11/29 00:03:39;;;;;;;25.50;15.10;;;;;;;0.40;85.37;101373.39;3368008;83;20923;-74
2022/11/29 00:08:30;;;;;;;23.85;14.18;;;;;;;0.35;85.40;101361.15;3376793;83;21015;-74
2022/11/29 00:13:21;;;;;;;26.00;15.23;;;;;;;0.34;85.44;101367.44;3366099;83;20993;-74
2022/11/29 00:18:13;;;;;;;24.12;15.88;;;;;;;0.31;85.46;101368.53;3377221;83;20955;-74
2022/11/29 00:23:05;;;;;;;25.15;15.55;;;;;;;0.29;85.51;101373.94;3301746;83;21516;-74
2022/11/29 00:27:56;;;;;;;27.02;15.72;;;;;;;0.24;85.49;101374.88;3349567;83;20970;-74
2022/11/29 00:32:47;;;;;;;27.93;16.25;;;;;;;0.19;85.57;101368.56;3372424;83;21067;-74
2022/11/29 00:37:38;;;;;;;24.85;14.40;;;;;;;0.14;85.57;101372.46;3335151;83;20943;-74
2022/11/29 00:42:30;;;;;;;29.70;16.37;;;;;;;0.10;85.60;101366.65;3374591;83;21009;-74
2022/11/29 00:47:21;;;;;;;24.60;15.23;;;;;;;0.02;85.61;101363.56;3425972;81;20981;-74
2022/11/29 00:52:12;;;;;;;21.93;14.73;;;;;;;-0.07;85.61;101368.02;3378966;83;21053;-74
2022/11/29 00:57:04;;;;;;;25.32;15.55;;;;;;;-0.13;85.76;101364.64;3369389;83;22086;-74
2022/11/29 01:01:55;;;;;;;29.18;16.93;;;;;;;-0.13;85.93;101365.92;3324707;83;21010;-75
2022/11/29 01:06:52;;;;;;;31.73;18.25;;;;;;;-0.08;86.09;101358.19;3359056;83;21562;-74
2022/11/29 01:11:43;;;;;;;26.52;16.07;;;;;;;-0.03;86.04;101358.52;3393499;83;20966;-74
2022/11/29 01:16:35;;;;;;;23.98;15.00;;;;;;;0.04;86.17;101353.45;3348540;83;21158;-74
2022/11/29 01:21:26;;;;;;;25.30;16.05;;;;;;;0.09;86.10;101348.23;3401196;82;21165;-74
2022/11/29 01:26:24;;;;;;;28.47;17.20;;;;;;;0.15;86.24;101344.84;3327924;83;21588;-74
2022/11/29 01:31:20;;;;;;;29.48;17.73;;;;;;;0.22;86.06;101346.16;3346866;83;20979;-74
2022/11/29 01:36:15;;;;;;;32.63;18.70;;;;;;;0.26;86.08;101343.90;3359336;83;20986;-74
2022/11/29 01:41:14;;;;;;;29.70;17.95;;;;;;;0.31;86.14;101342.55;3316930;83;20974;-74
2022/11/29 01:46:05;;;;;;;30.40;18.27;;;;;;;0.36;86.12;101339.91;3313193;83;21778;-74
2022/11/29 01:50:59;;;;;;;27.75;16.93;;;;;;;0.43;86.08;101335.20;3357299;83;20915;-74
2022/11/29 01:55:56;;;;;;;30.10;18.23;;;;;;;0.47;85.98;101330.81;3366208;83;20971;-74
2022/11/29 02:00:48;;;;;;;27.60;17.03;;;;;;;0.50;85.87;101330.98;3393664;83;21034;-75
2022/11/29 02:05:44;;;;;;;28.55;18.60;;;;;;;0.51;85.82;101331.09;3354004;83;20986;-74
2022/11/29 02:10:55;;;;;;;29.95;17.60;;;;;;;0.55;85.73;101334.75;3365760;83;20974;-74
2022/11/29 02:16:04;;;;;;;25.88;16.52;;;;;;;0.57;85.75;101330.62;3366265;83;21014;-74
2022/11/29 02:21:03;;;;;;;26.93;17.05;;;;;;;0.59;85.60;101329.08;3374663;83;21006;-74
2022/11/29 02:26:34;;;;;;;23.25;15.32;;;;;;;0.62;85.61;101327.98;3376740;83;21116;-75
2022/11/29 02:32:00;;;;;;;22.32;14.85;;;;;;;0.62;85.48;101325.42;3396016;83;20980;-74
2022/11/29 02:37:12;;;;;;;22.37;15.32;;;;;;;0.65;85.49;101330.75;3370231;83;21923;-74
2022/11/29 02:42:26;;;;;;;25.27;15.05;;;;;;;0.66;85.30;101336.75;3364636;83;20999;-74
2022/11/29 02:47:55;;;;;;;25.17;14.68;;;;;;;0.67;85.29;101345.81;3320323;83;21416;-74
2022/11/29 02:53:10;;;;;;;20.23;13.70;;;;;;;0.68;85.28;101345.04;3346607;83;21009;-74
2022/11/29 02:58:24;;;;;;;28.62;14.45;;;;;;;0.70;85.25;101341.31;3392679;83;21030;-74
2022/11/29 03:03:36;;;;;;;25.97;14.25;;;;;;;0.69;85.21;101339.12;3381037;83;21181;-74
2022/11/29 03:09:05;;;;;;;28.35;15.53;;;;;;;0.71;85.28;101350.34;3378015;83;21532;-74
2022/11/29 03:14:17;;;;;;;24.35;14.78;;;;;;;0.71;85.09;101352.91;3358548;83;21053;-74
2022/11/29 03:19:40;;;;;;;26.12;14.38;;;;;;;0.73;85.16;101355.56;3368386;83;21022;-74
2022/11/29 03:24:45;;;;;;;22.17;13.78;;;;;;;0.74;85.17;101356.08;3354424;83;21017;-74
2022/11/29 03:29:51;;;;;;;26.85;15.20;;;;;;;0.76;85.09;101355.78;3376225;83;20951;-74
2022/11/29 03:34:54;;;;;;;23.83;14.53;;;;;;;0.78;84.97;101358.45;3397513;83;21943;-74
2022/11/29 03:39:54;;;;;;;19.70;12.65;;;;;;;0.78;84.97;101363.56;3386478;83;20966;-74
2022/11/29 03:44:56;;;;;;;22.00;13.25;;;;;;;0.79;84.87;101365.32;3399399;83;20958;-74
2022/11/29 03:50:08;;;;;;;23.25;13.53;;;;;;;0.79;84.86;101363.67;3358059;83;21619;-74
2022/11/29 03:55:08;;;;;;;21.55;13.65;;;;;;;0.78;84.76;101358.05;3249544;85;21543;-74
2022/11/29 04:00:07;;;;;;;24.80;14.58;;;;;;;0.74;84.67;101359.52;3258851;86;21546;-74
2022/11/29 04:05:36;;;;;;;22.90;14.30;;;;;;;0.76;84.80;101364.34;3272516;85;21350;-74
2022/11/29 04:11:06;;;;;;;22.82;14.15;;;;;;;0.75;84.67;101370.27;3222196;87;21014;-74
2022/11/29 04:16:47;;;;;;;22.87;14.80;;;;;;;0.76;84.67;101372.02;3293635;86;21027;-74
2022/11/29 04:22:07;;;;;;;26.15;15.70;;;;;;;0.74;84.57;101377.83;3292175;87;21346;-74
2022/11/29 04:27:19;;;;;;;22.48;14.60;;;;;;;0.72;84.61;101375.17;3297147;86;21012;-74
2022/11/29 04:32:57;;;;;;;29.07;15.03;;;;;;;0.75;84.67;101383.42;3287057;84;21019;-74
2022/11/29 04:38:27;;;;;;;25.85;15.15;;;;;;;0.74;84.58;101390.63;3315832;84;21553;-73
2022/11/29 04:44:00;;;;;;;27.95;15.03;;;;;;;0.74;84.58;101391.52;3308438;84;21022;-73
2022/11/29 04:49:24;;;;;;;25.92;15.83;;;;;;;0.75;84.69;101398.42;3305584;84;21536;-74
2022/11/29 04:54:44;;;;;;;22.35;13.93;;;;;;;0.77;84.76;101397.25;3349002;83;20973;-74
2022/11/29 04:59:59;;;;;;;27.22;16.70;;;;;;;0.78;84.70;101404.52;3387870;83;21414;-74
2022/11/29 05:05:19;;;;;;;26.42;16.05;;;;;;;0.77;84.75;101404.92;3376433;83;21092;-73
2022/11/29 05:10:25;;;;;;;25.88;16.40;;;;;;;0.78;84.72;101412.20;3392520;83;20955;-74
2022/11/29 05:15:31;;;;;;;28.92;16.23;;;;;;;0.80;84.72;101407.67;3371396;82;21042;-73
2022/11/29 05:21:07;;;;;;;27.80;16.48;;;;;;;0.81;84.63;101410.73;3345254;83;21015;-74
2022/11/29 05:26:27;;;;;;;25.97;16.20;;;;;;;0.81;84.67;101414.58;3369036;83;21054;-74
2022/11/29 05:31:58;;;;;;;31.35;16.00;;;;;;;0.82;84.67;101418.02;3371373;83;20939;-74
2022/11/29 05:37:20;;;;;;;27.55;17.15;;;;;;;0.83;84.59;101426.20;3372790;83;21197;-74
2022/11/29 05:42:43;;;;;;;28.90;17.65;;;;;;;0.81;84.66;101425.22;3375169;82;21332;-74
2022/11/29 05:48:03;;;;;;;31.70;19.55;;;;;;;0.81;84.64;101435.06;3380077;83;21524;-74
2022/11/29 05:53:46;;;;;;;30.40;16.70;;;;;;;0.81;84.60;101441.86;3359473;83;21089;-74
2022/11/29 05:59:00;;;;;;;25.45;15.45;;;;;;;0.82;84.67;101447.46;3387637;83;20990;-74
2022/11/29 06:04:30;;;;;;;28.02;15.05;;;;;;;0.82;84.76;101448.73;3392634;83;21392;-74
2022/11/29 06:09:26;;;;;;;30.77;17.87;;;;;;;0.85;84.79;101454.08;3368624;83;21222;-74
2022/11/29 06:15:12;;;;;;;33.07;17.57;;;;;;;0.88;84.85;101463.25;3387925;82;20974;-74
2022/11/29 06:20:49;;;;;;;33.48;18.12;;;;;;;0.88;84.71;101465.81;3373211;83;20956;-74
2022/11/29 06:26:06;;;;;;;28.38;16.62;;;;;;;0.88;84.64;101467.09;3384471;83;21006;-74
2022/11/29 06:31:33;;;;;;;28.20;16.97;;;;;;;0.89;84.84;101473.57;3333459;84;21002;-74
2022/11/29 06:36:41;;;;;;;26.97;17.67;;;;;;;0.89;84.76;101474.85;3359157;83;21309;-74
2022/11/29 06:41:33;;;;;;;28.42;16.77;;;;;;;0.89;84.59;101476.53;3307392;84;21002;-73
2022/11/29 06:46:30;;;;;;;28.80;17.27;;;;;;;0.91;84.65;101480.08;3312831;84;20966;-74
2022/11/29 06:51:32;;;;;;;29.93;18.20;;;;;;;0.94;84.67;101488.86;3256348;84;21559;-73
2022/11/29 06:56:47;;;;;;;27.48;16.75;;;;;;;0.96;84.48;101487.69;3306775;84;21078;-74
2022/11/29 07:02:02;;;;;;;24.57;15.20;;;;;;;0.94;84.21;101489.27;3339443;84;21661;-74
2022/11/29 07:06:54;;;;;;;27.58;16.87;;;;;;;0.95;84.27;101491.05;3345110;84;20950;-73
2022/11/29 07:11:46;;;;;;;30.00;17.10;;;;;;;0.96;84.42;101497.93;3315591;84;21527;-73
2022/11/29 07:16:55;;;;;;;28.23;17.27;;;;;;;0.98;84.33;101500.20;3224111;85;21043;-73
2022/11/29 07:22:10;;;;;;;21.12;14.90;;;;;;;1.02;84.27;101508.61;3285909;83;20967;-73
2022/11/29 07:27:22;;;;;;;23.10;14.98;;;;;;;1.05;84.15;101508.80;3270763;85;21104;-73
2022/11/29 07:32:57;;;;;;;23.75;15.63;;;;;;;1.09;84.18;101518.48;3342881;84;21036;-73
2022/11/29 07:38:09;;;;;;;25.60;14.95;;;;;;;1.13;84.17;101521.74;3365135;82;21002;-73
2022/11/29 07:43:30;;;;;;;26.52;16.15;;;;;;;1.11;83.96;101516.91;3389232;82;21017;-73
2022/11/29 07:48:21;;;;;;;23.27;14.80;;;;;;;1.12;83.66;101521.23;3382031;82;20934;-73
2022/11/29 07:53:18;;;;;;;24.02;14.83;;;;;;;1.14;83.85;101520.97;3368024;82;21623;-73
2022/11/29 07:58:13;;;;;;;19.37;14.70;;;;;;;1.20;83.86;101517.02;3313860;82;21017;-73
2022/11/29 08:03:05;;;;;;;23.27;14.00;;;;;;;1.22;83.80;101516.77;3383665;82;21013;-73
2022/11/29 08:07:56;;;;;;;24.45;15.28;;;;;;;1.26;83.73;101516.17;3406816;82;21531;-73
2022/11/29 08:12:50;;;;;;;26.35;17.00;;;;;;;1.30;83.66;101518.14;3402234;82;21014;-73
2022/11/29 08:17:41;;;;;;;33.53;15.93;;;;;;;1.35;83.42;101518.06;3351920;82;21775;-74
2022/11/29 08:22:32;;;;;;;23.07;14.50;;;;;;;1.38;83.45;101519.56;3368376;82;20970;-75
2022/11/29 08:27:24;;;;;;;20.90;15.00;;;;;;;1.44;83.21;101519.95;3359235;83;21057;-73
2022/11/29 08:32:15;;;;;;;25.12;17.17;;;;;;;1.47;83.23;101529.14;3396052;83;21351;-75
2022/11/29 08:37:06;;;;;;;30.00;17.42;;;;;;;1.51;83.02;101524.70;3364686;83;20986;-74
2022/11/29 08:41:57;;;;;;;24.32;15.90;;;;;;;1.60;83.25;101527.39;3348131;83;22673;-74
2022/11/29 08:57:08;;;;;;;19.55;14.03;;;;;;;1.92;82.35;101522.20;3335178;83;21014;-73
2022/11/29 09:01:59;;;;;;;19.17;13.32;;;;;;;2.01;82.30;101521.52;3389822;82;20974;-73
2022/11/29 09:06:50;;;;;;;22.40;13.50;;;;;;;2.09;82.06;101524.16;3347773;83;21373;-73
2022/11/29 09:11:42;;;;;;;22.02;15.40;;;;;;;2.15;81.62;101522.00;3361150;83;21030;-74
2022/11/29 09:16:36;;;;;;;26.12;13.35;;;;;;;2.22;81.32;101515.59;3359969;83;21608;-73
2022/11/29 09:21:31;;;;;;;23.57;14.50;;;;;;;2.25;81.06;101518.33;3396950;82;21010;-74
2022/11/29 09:26:24;;;;;;;19.65;13.35;;;;;;;2.31;81.18;101511.03;3369004;83;21461;-73
2022/11/29 09:31:16;;;;;;;20.88;14.60;;;;;;;2.31;80.87;101513.97;3360404;83;21067;-74
2022/11/29 09:36:09;;;;;;;22.48;14.23;;;;;;;2.32;80.42;101505.09;3343034;83;21585;-74
2022/11/29 09:41:31;;;;;;;20.05;13.22;;;;;;;2.34;80.83;101507.75;3371301;83;21037;-73
2022/11/29 09:46:34;;;;;;;14.50;10.90;;;;;;;2.36;80.75;101509.64;3386591;83;20988;-73
2022/11/29 09:51:56;;;;;;;21.65;14.05;;;;;;;2.36;79.56;101510.93;3363851;83;21563;-73
2022/11/29 09:56:51;;;;;;;19.62;12.88;;;;;;;2.31;80.45;101519.10;3344333;83;21581;-73
2022/11/29 10:01:59;;;;;;;19.12;14.28;;;;;;;2.27;80.57;101511.23;3367465;83;21452;-73
2022/11/29 10:07:08;;;;;;;19.55;13.68;;;;;;;2.23;80.06;101505.39;3360491;83;21001;-73
2022/11/29 10:12:20;;;;;;;21.90;15.53;;;;;;;2.23;80.63;101506.67;3280631;85;21049;-74
2022/11/29 10:17:38;;;;;;;21.30;14.63;;;;;;;2.27;80.53;101507.75;3255231;85;21068;-72
2022/11/29 10:22:44;;;;;;;;;;;;;;;2.28;80.23;101504.01;3263930;85;21945;-73
2022/11/29 10:27:39;;;;;;;23.50;14.18;;;;;;;2.26;79.86;101506.00;3296997;84;20140;-74
2022/11/29 10:32:32;;;;;;;21.00;15.05;;;;;;;2.27;80.19;101502.25;3251367;85;20961;-73
2022/11/29 10:37:23;;;;;;;22.93;15.35;;;;;;;2.25;79.79;101496.14;3257405;85;21005;-73
2022/11/29 10:47:30;;;;;;;22.25;14.63;;;;;;;2.31;79.92;101488.31;3299087;82;21817;-74
2022/11/29 10:52:23;;;;;;;19.67;14.55;;;;;;;2.32;80.00;101495.23;3397646;82;20970;-74
2022/11/29 10:57:18;;;;;;;21.75;16.17;;;;;;;2.35;79.97;101496.71;3356451;82;21022;-74
2022/11/29 11:02:18;;;;;;;20.52;14.13;;;;;;;2.30;79.79;101510.52;3370842;82;21539;-74
2022/11/29 11:07:33;;;;;;;22.13;15.35;;;;;;;2.31;79.70;101507.55;3367742;82;21198;-73
2022/11/29 11:12:29;;;;;;;22.93;16.05;;;;;;;2.31;79.60;101507.55;3402613;81;22041;-74
2022/11/29 11:17:31;;;;;;;20.92;14.53;;;;;;;2.29;79.51;101505.80;3410981;82;21006;-74
2022/11/29 11:22:24;;;;;;;19.75;13.38;;;;;;;2.33;79.66;101498.30;3367771;82;21528;-75
2022/11/29 11:27:21;;;;;;;21.85;14.87;;;;;;;2.37;79.82;101499.85;3348503;83;20971;-75
2022/11/29 11:32:18;;;;;;;20.48;13.85;;;;;;;2.38;79.67;101502.02;3395756;83;21483;-74
2022/11/29 11:37:26;;;;;;;26.62;14.73;;;;;;;2.36;79.45;101497.19;3375914;83;21181;-74
2022/11/29 11:42:39;;;;;;;20.55;14.47;;;;;;;2.40;79.55;101503.03;3396716;82;20970;-74
2022/11/29 11:47:35;;;;;;;18.98;14.20;;;;;;;2.40;79.20;101507.75;3399463;82;20954;-74
2022/11/29 11:52:34;;;;;;;20.25;14.18;;;;;;;2.39;79.02;101510.22;3328919;83;21630;-74
2022/11/29 11:57:27;;;;;;;19.12;13.40;;;;;;;2.35;79.19;101518.53;3374706;83;20990;-74
2022/11/29 12:02:37;;;;;;;18.60;13.05;;;;;;;2.32;79.06;101522.17;3327950;83;21992;-73
2022/11/29 12:07:49;;;;;;;19.98;13.45;;;;;;;2.34;79.23;101523.16;3395991;83;20995;-74
2022/11/29 12:12:44;;;;;;;22.25;14.55;;;;;;;2.36;79.20;101526.70;3351270;83;20989;-73
2022/11/29 12:17:56;;;;;;;19.77;13.48;;;;;;;2.31;79.07;101521.30;3375379;82;20963;-74
2022/11/29 12:23:14;;;;;;;22.82;14.90;;;;;;;2.33;79.34;101519.70;3370358;83;21484;-74
2022/11/29 12:28:12;;;;;;;18.00;12.58;;;;;;;2.36;79.30;101526.70;3326225;83;21176;-74
2022/11/29 12:33:27;;;;;;;19.10;13.32;;;;;;;2.36;79.19;101521.56;3357798;83;20986;-73
2022/11/29 12:38:36;;;;;;;19.27;13.08;;;;;;;2.29;78.90;101537.88;3326305;83;21018;-74
2022/11/29 12:43:35;;;;;;;17.50;11.68;;;;;;;2.23;79.03;101534.91;3307432;85;20983;-74
2022/11/29 12:48:51;;;;;;;18.25;12.73;;;;;;;2.14;78.62;101538.17;3305621;83;21308;-74
2022/11/29 12:54:11;;;;;;;17.37;12.05;;;;;;;2.08;78.72;101545.48;3317603;84;21540;-74
2022/11/29 12:59:33;;;;;;;17.23;13.22;;;;;;;2.06;79.01;101531.67;3285147;84;20993;-74
2022/11/29 13:04:38;;;;;;;19.50;13.50;;;;;;;2.07;79.12;101543.70;3270680;84;21021;-74
2022/11/29 13:09:57;;;;;;;19.20;13.50;;;;;;;2.07;79.30;101547.55;3242629;84;21015;-74
2022/11/29 13:14:56;;;;;;;19.45;14.20;;;;;;;2.08;79.31;101551.49;3311479;85;21011;-74
2022/11/29 13:19:58;;;;;;;18.70;13.58;;;;;;;2.08;79.40;101553.18;3282449;85;21453;-73
2022/11/29 13:25:01;;;;;;;20.95;13.90;;;;;;;2.02;79.35;101551.48;3299453;85;21015;-74
2022/11/29 13:29:53;;;;;;;23.10;15.00;;;;;;;1.97;79.30;101555.42;3369540;82;21443;-73
2022/11/29 13:34:48;;;;;;;19.70;13.62;;;;;;;1.97;79.52;101566.97;3358798;82;20986;-75
2022/11/29 13:40:20;;;;;;;19.92;13.40;;;;;;;1.97;79.60;101566.59;3380868;82;21065;-74
2022/11/29 13:45:29;;;;;;;18.75;12.93;;;;;;;1.93;79.45;101571.00;3381570;82;21548;-74
2022/11/29 13:50:43;;;;;;;21.10;12.90;;;;;;;1.92;79.62;101581.19;3354561;82;21065;-75
2022/11/29 13:55:44;;;;;;;18.48;13.53;;;;;;;1.89;79.60;101584.02;3347917;82;20951;-74
2022/11/29 14:00:47;;;;;;;20.02;13.43;;;;;;;1.86;79.70;101589.34;3403532;82;20956;-74
2022/11/29 14:05:40;;;;;;;22.20;13.28;;;;;;;1.81;79.58;101581.37;3389303;81;21532;-74
2022/11/29 14:10:32;;;;;;;20.30;14.78;;;;;;;1.79;79.73;101590.64;3413940;82;21536;-74
2022/11/29 14:15:30;;;;;;;21.12;13.50;;;;;;;1.76;79.76;101589.14;3401930;82;21025;-74
2022/11/29 14:20:27;;;;;;;20.65;13.95;;;;;;;1.75;79.88;101591.20;3357000;82;21096;-74
2022/11/29 14:25:24;;;;;;;20.03;13.60;;;;;;;1.74;79.82;101597.53;3322333;84;21523;-74
2022/11/29 14:30:32;;;;;;;22.65;13.93;;;;;;;1.71;79.81;101586.66;3299984;84;20990;-74
2022/11/29 14:35:41;;;;;;;20.85;15.48;;;;;;;1.70;79.84;101586.19;3291189;85;22106;-73
2022/11/29 14:40:55;;;;;;;22.90;14.45;;;;;;;1.69;79.78;101590.80;3312045;84;20980;-75
2022/11/29 14:46:07;;;;;;;22.50;15.28;;;;;;;1.64;79.62;101586.64;3332751;84;21029;-72
2022/11/29 14:51:15;;;;;;;21.40;14.95;;;;;;;1.60;79.54;101591.48;3322807;84;22142;-74
2022/11/29 14:56:37;;;;;;;21.42;13.60;;;;;;;1.55;79.38;101586.43;3282093;85;21025;-75
2022/11/29 15:01:28;;;;;;;21.90;14.60;;;;;;;1.52;79.57;101589.29;3306702;85;21419;-75
2022/11/29 15:06:26;;;;;;;19.98;14.43;;;;;;;1.52;79.65;101586.72;3328225;84;20963;-74
2022/11/29 15:11:35;;;;;;;17.52;11.93;;;;;;;1.49;79.47;101587.79;3311561;84;21580;-74
2022/11/29 15:16:43;;;;;;;18.65;13.50;;;;;;;1.47;79.51;101589.36;3312505;84;21017;-73
2022/11/29 15:21:55;;;;;;;21.95;14.47;;;;;;;1.46;79.42;101595.27;3291763;85;22004;-74
2022/11/29 15:27:01;;;;;;;17.70;12.15;;;;;;;1.45;79.63;101593.50;3345510;84;21109;-73
2022/11/29 15:31:59;;;;;;;22.35;13.65;;;;;;;1.49;79.82;101585.23;3299394;84;21065;-74
2022/11/29 15:36:50;;;;;;;23.42;13.85;;;;;;;1.47;79.76;101594.49;3303362;84;20942;-74
2022/11/29 15:41:41;;;;;;;21.42;14.20;;;;;;;1.47;79.85;101602.18;3346286;84;21021;-74
2022/11/29 15:46:34;;;;;;;19.10;13.65;;;;;;;1.49;79.75;101610.86;3316193;84;20962;-74
2022/11/29 15:51:35;;;;;;;22.77;14.25;;;;;;;1.49;79.68;101613.42;3336952;84;21332;-74
2022/11/29 15:56:53;;;;;;;20.48;13.28;;;;;;;1.48;79.61;101614.19;3287231;84;21765;-73
2022/11/29 16:01:45;;;;;;;;;;;;;;;1.47;79.41;101614.99;3287799;84;21450;-74
2022/11/29 16:06:41;;;;;;;18.10;12.93;;;;;;;1.46;79.46;101618.73;3271188;84;20426;-73
2022/11/29 16:11:32;;;;;;;17.77;12.53;;;;;;;1.46;79.68;101628.58;3340455;84;21005;-74
2022/11/29 16:16:25;;;;;;;19.90;13.40;;;;;;;1.45;79.79;101617.85;3302382;84;21264;-74
2022/11/29 16:21:27;;;;;;;21.45;14.53;;;;;;;1.47;79.58;101616.27;3260995;84;21023;-75
2022/11/29 16:26:27;;;;;;;18.17;13.55;;;;;;;1.47;79.71;101617.56;3382700;82;20986;-74
2022/11/29 16:31:22;;;;;;;21.68;14.28;;;;;;;1.49;79.94;101618.55;3382586;82;21477;-74
2022/11/29 16:36:22;;;;;;;23.60;15.58;;;;;;;1.51;80.08;101615.69;3405945;82;20974;-73
2022/11/29 16:41:33;;;;;;;24.05;15.23;;;;;;;1.53;79.99;101623.48;3377002;82;21523;-73
2022/11/29 16:46:32;;;;;;;21.27;14.43;;;;;;;1.52;79.94;101626.82;3354488;82;21025;-73
2022/11/29 16:51:47;;;;;;;21.97;14.33;;;;;;;1.51;79.91;101636.59;3380202;82;21057;-73
2022/11/29 16:56:38;;;;;;;24.07;15.58;;;;;;;1.52;79.75;101639.27;3359642;82;20922;-73
2022/11/29 17:01:30;;;;;;;24.47;14.55;;;;;;;1.50;79.78;101645.97;3408058;82;21053;-73
2022/11/29 17:06:24;;;;;;;23.10;13.70;;;;;;;1.51;79.73;101640.44;3343030;82;21651;-73
2022/11/29 17:11:17;;;;;;;21.27;14.03;;;;;;;1.50;79.69;101644.69;3378784;82;21548;-74
2022/11/29 17:16:14;;;;;;;22.02;14.58;;;;;;;1.50;79.77;101653.66;3383521;82;21070;-74
2022/11/29 17:21:06;;;;;;;17.87;13.17;;;;;;;1.49;79.70;101651.86;3397312;82;21579;-73
2022/11/29 17:26:01;;;;;;;20.17;13.00;;;;;;;1.51;79.90;101656.70;3359688;83;21030;-73
2022/11/29 17:30:54;;;;;;;19.37;13.78;;;;;;;1.51;79.61;101656.70;3297379;83;21904;-73
2022/11/29 17:35:45;;;;;;;20.88;13.18;;;;;;;1.46;79.40;101653.33;3324923;83;21366;-72
2022/11/29 17:40:39;;;;;;;20.30;14.05;;;;;;;1.46;79.56;101660.61;3337813;83;21563;-73
2022/11/29 17:45:30;;;;;;;19.07;14.20;;;;;;;1.49;79.63;101659.55;3372213;83;20955;-73
2022/11/29 17:50:21;;;;;;;19.05;12.65;;;;;;;1.48;79.68;101659.04;3417439;81;20991;-73
2022/11/29 17:55:13;;;;;;;22.05;15.38;;;;;;;1.48;79.51;101669.30;3323156;83;22599;-74
2022/11/29 18:00:07;;;;;;;20.32;13.25;;;;;;;1.48;79.50;101662.89;3300023;83;21010;-73
2022/11/29 18:04:58;;;;;;;20.40;13.60;;;;;;;1.48;79.41;101664.56;3281701;84;20994;-73
2022/11/29 18:09:50;;;;;;;20.37;13.68;;;;;;;1.46;79.33;101659.34;3325776;83;21508;-73
2022/11/29 18:14:41;;;;;;;21.68;14.18;;;;;;;1.46;79.28;101668.70;3285515;83;21612;-73
2022/11/29 18:19:37;;;;;;;21.00;12.58;;;;;;;1.45;79.27;101670.76;3351713;83;21363;-74
2022/11/29 18:24:28;;;;;;;19.95;13.40;;;;;;;1.44;79.42;101665.16;3352164;83;21014;-73
2022/11/29 18:29:19;;;;;;;21.05;14.07;;;;;;;1.42;79.12;101668.89;3321346;83;21010;-73
2022/11/29 18:34:13;;;;;;;17.95;12.90;;;;;;;1.44;79.27;101667.31;3365243;83;21524;-73
2022/11/29 18:39:08;;;;;;;18.37;13.75;;;;;;;1.44;79.07;101667.31;3322633;84;22222;-74
2022/11/29 18:44:06;;;;;;;21.75;14.25;;;;;;;1.45;79.21;101669.11;3380321;84;21152;-74
2022/11/29 18:49:04;;;;;;;17.98;12.10;;;;;;;1.43;79.12;101669.40;3349718;83;20994;-74
2022/11/29 18:53:52;;;;;;;20.80;13.65;;;;;;;1.42;78.93;101667.61;3282824;83;21038;-75
2022/11/29 18:58:49;;;;;;;20.60;13.98;;;;;;;1.42;79.12;101667.61;3354593;84;48758;-74
2022/11/29 19:03:44;;;;;;;18.32;13.75;;;;;;;1.44;79.11;101669.88;3347596;84;21107;-74
2022/11/29 19:08:37;;;;;;;18.30;12.65;;;;;;;1.47;79.33;101676.50;3361578;83;21470;-74
2022/11/29 19:13:28;;;;;;;20.82;13.60;;;;;;;1.45;79.09;101688.33;3361461;84;21016;-74
2022/11/29 19:18:20;;;;;;;23.45;15.13;;;;;;;1.45;79.23;101688.33;3354678;83;20943;-74
2022/11/29 19:23:12;;;;;;;20.60;13.70;;;;;;;1.45;79.13;101694.73;3348671;82;21555;-74
2022/11/29 19:28:03;;;;;;;19.27;13.28;;;;;;;1.45;79.34;101693.45;3345037;82;20946;-74
2022/11/29 19:32:54;;;;;;;20.60;14.60;;;;;;;1.46;79.08;101699.06;3430436;81;21033;-74
2022/11/29 19:37:45;;;;;;;18.77;12.70;;;;;;;1.43;78.85;101701.44;3374252;83;21558;-74
2022/11/29 19:42:36;;;;;;;22.35;13.70;;;;;;;1.40;78.87;101705.05;3335581;81;20970;-74
2022/11/29 19:47:28;;;;;;;22.07;13.93;;;;;;;1.40;78.84;101711.46;3368905;82;21646;-74
2022/11/29 19:52:19;;;;;;;24.30;14.40;;;;;;;1.40;78.89;101716.59;3398943;81;20930;-74
2022/11/29 19:57:10;;;;;;;19.35;14.10;;;;;;;1.39;78.98;101712.23;3362546;82;22493;-73
2022/11/29 20:02:01;;;;;;;18.55;14.23;;;;;;;1.42;79.04;101723.11;3380126;81;20946;-74
2022/11/29 20:06:53;;;;;;;23.35;13.93;;;;;;;1.42;78.91;101711.17;3376245;82;20985;-72
2022/11/29 20:11:44;;;;;;;21.95;14.10;;;;;;;1.42;79.04;101719.27;3339052;81;21060;-73
2022/11/29 20:16:37;;;;;;;23.90;15.38;;;;;;;1.42;79.15;101722.70;3407587;82;20994;-72
2022/11/29 20:21:31;;;;;;;21.77;15.93;;;;;;;1.40;79.05;101725.55;3372337;82;21480;-72
2022/11/29 20:26:23;;;;;;;23.07;14.68;;;;;;;1.42;79.13;101727.83;3387990;82;20969;-72
2022/11/29 20:31:20;;;;;;;19.48;13.18;;;;;;;1.40;79.04;101725.55;3347274;82;20974;-72
2022/11/29 20:36:34;;;;;;;21.57;13.03;;;;;;;1.40;78.84;101721.71;3356483;81;21017;-73
2022/11/29 20:41:50;;;;;;;21.93;14.35;;;;;;;1.36;78.52;101723.57;3409417;82;20966;-74
2022/11/29 20:46:41;;;;;;;18.95;12.98;;;;;;;1.33;78.50;101724.63;3394150;82;21334;-74
2022/11/29 20:51:47;;;;;;;16.48;12.05;;;;;;;1.33;78.42;101737.44;3379207;82;21015;-74
2022/11/29 20:56:38;;;;;;;19.70;12.03;;;;;;;1.32;78.47;101734.36;3371826;81;21021;-73
2022/11/29 21:01:29;;;;;;;18.25;13.20;;;;;;;1.31;78.57;101728.36;3331592;82;21002;-73
2022/11/29 21:06:21;;;;;;;17.57;12.33;;;;;;;1.31;78.39;101730.04;3341156;81;21631;-73
2022/11/29 21:11:13;;;;;;;17.65;12.58;;;;;;;1.28;78.19;101732.38;3331784;81;21265;-74
2022/11/29 21:16:06;;;;;;;19.17;13.20;;;;;;;1.26;78.18;101731.38;3373006;81;21069;-72
2022/11/29 21:21:18;;;;;;;18.80;13.43;;;;;;;1.27;78.18;101735.70;3381042;82;21507;-72
2022/11/29 21:26:30;;;;;;;18.00;12.88;;;;;;;1.22;78.11;101732.84;3318865;82;21605;-71
2022/11/29 21:31:21;;;;;;;19.50;13.88;;;;;;;1.22;77.97;101748.61;3217295;85;21039;-72
2022/11/29 21:36:13;;;;;;;17.92;12.20;;;;;;;1.20;78.26;101743.73;3173117;86;21574;-72
2022/11/29 21:41:04;;;;;;;21.10;14.53;;;;;;;1.22;77.89;101749.89;3257777;85;21038;-72
2022/11/29 21:45:56;;;;;;;18.75;12.95;;;;;;;1.21;78.17;101751.54;3259656;86;21031;-73
2022/11/29 21:50:50;;;;;;;19.42;13.32;;;;;;;1.23;78.34;101749.09;3225522;86;21085;-73
2022/11/29 21:55:42;;;;;;;18.62;13.35;;;;;;;1.25;78.45;101755.20;3199094;86;21076;-74
2022/11/29 22:00:33;;;;;;;19.57;13.08;;;;;;;1.27;78.49;101757.48;3240540;85;21228;-73
2022/11/29 22:05:24;;;;;;;21.33;14.53;;;;;;;1.27;78.28;101749.80;3280778;84;21481;-74
2022/11/29 22:10:16;;;;;;;21.07;14.00;;;;;;;1.26;78.61;101758.28;3327254;83;21046;-74
2022/11/29 22:15:10;;;;;;;16.82;11.83;;;;;;;1.25;78.62;101760.33;3390034;82;21003;-73
2022/11/29 22:20:01;;;;;;;24.47;14.38;;;;;;;1.26;78.46;101765.97;3312080;83;20915;-73
2022/11/29 22:24:52;;;;;;;18.65;14.53;;;;;;;1.21;78.47;101766.91;3334688;84;21029;-73
2022/11/29 22:29:43;;;;;;;22.35;14.35;;;;;;;1.22;78.46;101770.39;3308485;84;21011;-73
2022/11/29 22:34:34;;;;;;;19.60;13.05;;;;;;;1.22;78.49;101763.98;3342981;83;21583;-73
2022/11/29 22:39:25;;;;;;;20.02;12.33;;;;;;;1.21;78.42;101772.44;3336493;83;20963;-74
2022/11/29 22:44:16;;;;;;;18.57;13.13;;;;;;;1.21;78.29;101763.47;3297385;83;21002;-74
2022/11/29 22:49:08;;;;;;;18.77;13.62;;;;;;;1.21;78.24;101767.31;3341695;83;21276;-74
2022/11/29 22:54:04;;;;;;;17.82;12.65;;;;;;;1.23;78.55;101772.15;3274132;82;21105;-74
2022/11/29 22:58:55;;;;;;;20.77;13.22;;;;;;;1.24;78.50;101763.30;3347086;83;21003;-73
2022/11/29 23:03:52;;;;;;;17.27;12.07;;;;;;;1.24;78.51;101763.30;3342815;83;21089;-72
2022/11/29 23:08:45;;;;;;;19.07;12.40;;;;;;;1.26;78.33;101763.41;3350282;83;20991;-74
2022/11/29 23:13:39;;;;;;;18.60;12.50;;;;;;;1.23;78.35;101761.91;3331999;83;21029;-73
2022/11/29 23:18:35;;;;;;;17.35;12.37;;;;;;;1.23;78.45;101752.94;3335474;83;21055;-73
2022/11/29 23:23:27;;;;;;;18.20;13.07;;;;;;;1.18;78.25;101751.34;3307580;83;20991;-72